createdAt,value
2023-04-24T00:02:12.455Z,16.00
2023-04-24T00:04:42.184Z,16.10
2023-04-24T00:07:10.748Z,16.10
2023-04-24T00:09:38.793Z,16.10
2023-04-24T00:12:07.101Z,16.10
2023-04-24T00:14:36.632Z,16.10
2023-04-24T00:17:04.986Z,16.10
2023-04-24T00:19:33.124Z,16.10
2023-04-24T00:22:01.123Z,16.10
2023-04-24T00:24:28.956Z,16.10
2023-04-24T00:26:57.078Z,16.10
2023-04-24T00:29:29.954Z,16.20
2023-04-24T00:31:58.646Z,16.20
2023-04-24T00:34:26.743Z,16.20
2023-04-24T00:36:54.846Z,16.20
2023-04-24T00:39:24.312Z,16.20
2023-04-24T00:41:53.931Z,16.20
2023-04-24T00:44:21.920Z,16.10
2023-04-24T00:46:56.222Z,16.10
2023-04-24T00:49:24.652Z,16.00
2023-04-24T00:51:52.624Z,16.10
2023-04-24T00:54:20.942Z,16.00
2023-04-24T00:56:48.857Z,16.00
2023-04-24T00:59:19.346Z,16.10
2023-04-24T01:01:48.293Z,16.10
2023-04-24T01:04:17.408Z,16.00
2023-04-24T01:06:47.018Z,16.00
2023-04-24T01:09:16.483Z,16.00
2023-04-24T01:11:44.587Z,16.00
2023-04-24T01:14:13.573Z,16.00
2023-04-24T01:16:43.541Z,16.00
2023-04-24T01:19:13.293Z,16.10
2023-04-24T01:21:43.721Z,16.00
2023-04-24T01:24:12.065Z,16.10
2023-04-24T01:26:40.401Z,16.00
2023-04-24T01:29:09.248Z,16.00
2023-04-24T01:31:37.290Z,16.10
2023-04-24T01:34:05.635Z,16.10
2023-04-24T01:36:34.600Z,16.00
2023-04-24T01:39:02.824Z,16.00
2023-04-24T01:41:31.360Z,16.00
2023-04-24T01:44:00.286Z,16.00
2023-04-24T01:46:28.395Z,15.90
2023-04-24T01:48:57.738Z,15.90
2023-04-24T01:51:25.768Z,15.80
2023-04-24T01:53:54.617Z,15.90
2023-04-24T01:56:24.272Z,15.90
2023-04-24T01:58:54.020Z,15.90
2023-04-24T02:01:22.670Z,15.90
2023-04-24T02:03:50.914Z,15.90
2023-04-24T02:06:19.249Z,16.00
2023-04-24T02:08:47.250Z,15.90
2023-04-24T02:11:15.145Z,15.90
2023-04-24T02:13:43.427Z,15.80
2023-04-24T02:16:11.537Z,15.80
2023-04-24T02:18:39.591Z,15.90
2023-04-24T02:21:07.540Z,15.90
2023-04-24T02:23:36.705Z,16.00
2023-04-24T02:26:04.639Z,16.00
2023-04-24T02:28:32.718Z,16.10
2023-04-24T02:31:01.528Z,16.10
2023-04-24T02:33:29.658Z,16.10
2023-04-24T02:35:57.458Z,16.20
2023-04-24T02:38:25.623Z,16.20
2023-04-24T02:40:53.586Z,16.30
2023-04-24T02:43:21.853Z,16.30
2023-04-24T02:45:50.193Z,16.30
2023-04-24T02:48:18.548Z,16.30
2023-04-24T02:50:46.708Z,16.30
2023-04-24T02:53:14.632Z,16.30
2023-04-24T02:55:42.394Z,16.30
2023-04-24T02:58:10.450Z,16.40
2023-04-24T03:00:38.364Z,16.40
2023-04-24T03:03:06.995Z,16.40
2023-04-24T03:05:35.350Z,16.40
2023-04-24T03:08:03.343Z,16.40
2023-04-24T03:10:31.250Z,16.50
2023-04-24T03:12:59.473Z,16.40
2023-04-24T03:15:27.989Z,16.30
2023-04-24T03:17:57.017Z,16.30
2023-04-24T03:20:27.241Z,16.30
2023-04-24T03:22:58.639Z,16.30
2023-04-24T03:25:27.647Z,16.30
2023-04-24T03:27:58.283Z,16.20
2023-04-24T03:30:49.736Z,16.20
2023-04-24T03:33:19.186Z,16.30
2023-04-24T03:35:59.933Z,16.30
2023-04-24T03:38:31.193Z,16.30
2023-04-24T03:41:03.401Z,16.30
2023-04-24T03:43:42.160Z,16.30
2023-04-24T03:46:11.824Z,16.30
2023-04-24T03:48:44.501Z,16.30
2023-04-24T03:51:12.975Z,16.30
2023-04-24T03:53:44.831Z,16.30
2023-04-24T03:56:16.382Z,16.30
2023-04-24T03:58:45.097Z,16.30
2023-04-24T04:01:13.438Z,16.20
2023-04-24T04:03:58.094Z,16.20
2023-04-24T04:06:28.645Z,16.10
2023-04-24T04:09:00.171Z,16.00
2023-04-24T04:11:28.494Z,16.00
2023-04-24T04:13:56.830Z,15.90
2023-04-24T04:16:26.376Z,15.80
2023-04-24T04:19:00.028Z,15.80
2023-04-24T04:21:28.691Z,15.80
2023-04-24T04:24:06.742Z,15.80
2023-04-24T04:26:40.573Z,15.80
2023-04-24T04:29:11.562Z,15.80
2023-04-24T04:31:44.347Z,15.80
2023-04-24T04:34:15.455Z,15.80
2023-04-24T04:36:45.353Z,15.80
2023-04-24T04:39:32.077Z,15.80
2023-04-24T04:42:28.418Z,15.80
2023-04-24T04:44:58.719Z,15.90
2023-04-24T04:47:37.092Z,15.90
2023-04-24T04:50:06.798Z,15.90
2023-04-24T04:52:34.680Z,15.90
2023-04-24T04:55:18.126Z,15.90
2023-04-24T04:58:07.352Z,16.00
2023-04-24T05:00:37.263Z,16.10
2023-04-24T05:05:48.516Z,16.30
2023-04-24T05:08:26.379Z,16.30
2023-04-24T05:10:56.247Z,16.30
2023-04-24T05:13:38.111Z,16.40
2023-04-24T05:16:12.342Z,16.50
2023-04-24T05:18:41.441Z,16.50
2023-04-24T05:21:12.060Z,16.60
2023-04-24T05:23:43.065Z,16.70
2023-04-24T05:26:12.731Z,16.80
2023-04-24T05:28:40.807Z,16.90
2023-04-24T05:31:14.168Z,17.00
2023-04-24T05:33:42.327Z,17.00
2023-04-24T05:36:10.172Z,17.00
2023-04-24T05:38:38.349Z,17.10
2023-04-24T05:41:06.506Z,17.20
2023-04-24T05:43:34.556Z,17.20
2023-04-24T05:46:02.662Z,17.30
2023-04-24T05:48:31.491Z,17.40
2023-04-24T05:51:03.022Z,17.40
2023-04-24T05:53:32.132Z,17.50
2023-04-24T05:56:00.153Z,17.60
2023-04-24T05:58:28.641Z,17.60
2023-04-24T06:00:56.886Z,17.70
2023-04-24T06:03:25.377Z,17.70
2023-04-24T06:05:53.534Z,17.80
2023-04-24T06:08:23.245Z,17.90
2023-04-24T06:10:51.427Z,17.90
2023-04-24T06:13:24.340Z,18.00
2023-04-24T06:16:14.697Z,18.20
2023-04-24T06:18:48.915Z,18.20
2023-04-24T06:21:18.606Z,18.30
2023-04-24T06:23:47.944Z,18.30
2023-04-24T06:26:16.818Z,18.40
2023-04-24T06:28:45.421Z,18.40
2023-04-24T06:31:13.458Z,18.50
2023-04-24T06:33:41.474Z,18.60
2023-04-24T06:36:11.992Z,18.60
2023-04-24T06:38:40.256Z,18.80
2023-04-24T06:41:08.329Z,18.80
2023-04-24T06:43:36.523Z,18.90
2023-04-24T06:46:05.109Z,19.10
2023-04-24T06:48:33.396Z,19.10
2023-04-24T06:51:01.389Z,19.20
2023-04-24T06:53:29.405Z,19.20
2023-04-24T06:55:57.573Z,19.30
2023-04-24T06:58:27.280Z,19.40
2023-04-24T07:00:55.573Z,19.40
2023-04-24T07:03:23.718Z,19.50
2023-04-24T07:05:52.852Z,19.50
2023-04-24T07:08:22.361Z,19.50
2023-04-24T07:10:52.652Z,19.50
2023-04-24T07:13:20.870Z,19.50
2023-04-24T07:15:51.963Z,19.60
2023-04-24T07:18:20.350Z,19.80
2023-04-24T07:20:51.461Z,19.70
2023-04-24T07:23:21.002Z,19.70
2023-04-24T07:25:48.905Z,19.70
2023-04-24T07:28:19.027Z,19.80
2023-04-24T07:30:47.282Z,19.90
2023-04-24T07:33:15.215Z,19.90
2023-04-24T07:35:44.581Z,19.90
2023-04-24T07:38:12.815Z,19.90
2023-04-24T07:40:41.020Z,20.00
2023-04-24T07:43:08.961Z,20.10
2023-04-24T07:45:38.777Z,20.30
2023-04-24T07:48:07.286Z,20.40
2023-04-24T07:50:36.435Z,20.60
2023-04-24T07:53:04.808Z,20.70
2023-04-24T07:55:32.803Z,20.70
2023-04-24T07:58:01.057Z,20.60
2023-04-24T08:00:29.215Z,20.70
2023-04-24T08:02:57.506Z,20.80
2023-04-24T08:05:27.106Z,20.70
2023-04-24T08:07:55.935Z,20.70
2023-04-24T08:10:24.956Z,20.80
2023-04-24T08:12:53.444Z,20.90
2023-04-24T08:15:21.256Z,20.90
2023-04-24T08:17:49.405Z,20.90
2023-04-24T08:20:17.392Z,21.00
2023-04-24T08:22:48.954Z,21.10
2023-04-24T08:25:17.420Z,21.10
2023-04-24T08:27:45.484Z,21.20
2023-04-24T08:30:14.172Z,21.20
2023-04-24T08:32:41.988Z,21.40
2023-04-24T08:35:11.070Z,21.60
2023-04-24T08:37:39.515Z,21.70
2023-04-24T08:40:16.323Z,21.70
2023-04-24T08:42:51.736Z,21.60
2023-04-24T08:45:19.822Z,21.80
2023-04-24T08:47:48.123Z,21.90
2023-04-24T08:50:16.945Z,21.90
2023-04-24T08:52:45.036Z,22.00
2023-04-24T08:55:16.273Z,22.20
2023-04-24T08:57:46.269Z,22.30
2023-04-24T09:00:15.344Z,22.10
2023-04-24T09:02:48.712Z,22.20
2023-04-24T09:05:19.706Z,22.30
2023-04-24T09:07:55.253Z,22.40
2023-04-24T09:10:25.068Z,22.10
2023-04-24T09:12:53.809Z,22.10
2023-04-24T09:15:22.592Z,22.30
2023-04-24T09:17:51.681Z,22.40
2023-04-24T09:20:19.851Z,22.70
2023-04-24T09:22:48.990Z,22.70
2023-04-24T09:25:17.614Z,22.50
2023-04-24T09:27:47.417Z,22.70
2023-04-24T09:30:22.400Z,22.80
2023-04-24T09:32:50.581Z,23.00
2023-04-24T09:35:18.560Z,23.10
2023-04-24T09:37:48.342Z,23.40
2023-04-24T09:40:23.920Z,23.60
2023-04-24T09:42:58.190Z,23.80
2023-04-24T09:45:44.549Z,23.90
2023-04-24T09:48:13.490Z,24.10
2023-04-24T09:50:47.496Z,23.80
2023-04-24T09:53:15.601Z,23.70
2023-04-24T09:55:50.020Z,24.00
2023-04-24T09:58:18.401Z,24.20
2023-04-24T10:00:47.828Z,24.00
2023-04-24T10:03:16.039Z,23.90
2023-04-24T10:05:45.128Z,23.90
2023-04-24T10:08:14.514Z,24.30
2023-04-24T10:10:47.281Z,24.20
2023-04-24T10:13:17.071Z,24.40
2023-04-24T10:15:45.354Z,24.20
2023-04-24T10:18:13.870Z,24.30
2023-04-24T10:20:42.537Z,24.70
2023-04-24T10:23:12.106Z,25.20
2023-04-24T10:25:40.145Z,25.70
2023-04-24T10:28:10.596Z,26.10
2023-04-24T10:30:44.268Z,26.00
2023-04-24T10:33:13.880Z,26.10
2023-04-24T10:35:49.261Z,26.20
2023-04-24T10:38:25.827Z,26.30
2023-04-24T10:40:59.052Z,26.00
2023-04-24T10:43:27.462Z,26.30
2023-04-24T10:46:20.892Z,26.70
2023-04-24T10:48:57.040Z,27.80
2023-04-24T10:51:26.130Z,28.10
2023-04-24T10:53:54.276Z,28.00
2023-04-24T10:56:23.689Z,28.60
2023-04-24T10:58:54.489Z,28.80
2023-04-24T11:01:33.846Z,29.10
2023-04-24T11:04:04.787Z,29.50
2023-04-24T11:06:38.175Z,29.70
2023-04-24T11:09:07.921Z,29.60
2023-04-24T11:11:38.878Z,30.10
2023-04-24T11:14:08.814Z,29.40
2023-04-24T11:16:46.005Z,28.50
2023-04-24T11:19:18.086Z,28.70
2023-04-24T11:21:58.965Z,28.70
2023-04-24T11:24:32.710Z,28.90
2023-04-24T11:27:05.848Z,28.50
2023-04-24T11:29:51.726Z,27.40
2023-04-24T11:32:34.867Z,27.50
2023-04-24T11:35:11.215Z,28.40
2023-04-24T11:37:41.289Z,28.60
2023-04-24T11:40:14.656Z,28.80
2023-04-24T11:42:47.176Z,28.20
2023-04-24T11:45:17.775Z,28.50
2023-04-24T11:47:47.090Z,28.80
2023-04-24T11:50:20.095Z,28.80
2023-04-24T11:52:50.152Z,29.70
2023-04-24T11:55:18.242Z,29.40
2023-04-24T11:57:54.877Z,29.10
2023-04-24T12:00:25.050Z,29.50
2023-04-24T12:03:09.331Z,29.50
2023-04-24T12:05:38.850Z,29.70
2023-04-24T12:08:07.063Z,29.80
2023-04-24T12:10:39.055Z,29.20
2023-04-24T12:13:07.295Z,29.20
2023-04-24T12:15:35.215Z,30.50
2023-04-24T12:18:03.499Z,30.80
2023-04-24T12:20:33.732Z,30.50
2023-04-24T12:23:03.017Z,31.30
2023-04-24T12:25:36.049Z,31.00
2023-04-24T12:28:07.727Z,31.70
2023-04-24T12:30:40.997Z,31.80
2023-04-24T12:33:09.360Z,30.80
2023-04-24T12:35:37.383Z,29.40
2023-04-24T12:38:14.729Z,28.60
2023-04-24T12:40:44.363Z,28.90
2023-04-24T12:43:21.033Z,29.60
2023-04-24T12:45:50.107Z,29.70
2023-04-24T12:48:18.126Z,30.10
2023-04-24T12:50:47.456Z,31.10
2023-04-24T12:53:17.635Z,31.30
2023-04-24T12:55:46.541Z,30.90
2023-04-24T12:58:15.051Z,29.80
2023-04-24T13:00:45.019Z,29.20
2023-04-24T13:03:14.457Z,28.50
2023-04-24T13:05:43.913Z,28.00
2023-04-24T13:08:12.010Z,28.10
2023-04-24T13:10:40.632Z,27.90
2023-04-24T13:13:09.458Z,27.90
2023-04-24T13:15:37.490Z,28.30
2023-04-24T13:18:05.841Z,28.10
2023-04-24T13:20:34.097Z,28.00
2023-04-24T13:23:02.334Z,27.40
2023-04-24T13:25:37.947Z,27.70
2023-04-24T13:28:06.951Z,27.90
2023-04-24T13:30:35.070Z,27.50
2023-04-24T13:33:03.093Z,27.50
2023-04-24T13:35:31.432Z,27.30
2023-04-24T13:38:01.538Z,27.50
2023-04-24T13:40:29.825Z,27.50
2023-04-24T13:42:58.075Z,27.30
2023-04-24T13:45:26.376Z,27.60
2023-04-24T13:47:58.986Z,27.30
2023-04-24T13:50:27.180Z,27.30
2023-04-24T13:52:55.783Z,26.50
2023-04-24T13:55:24.112Z,26.30
2023-04-24T13:57:53.471Z,26.00
2023-04-24T14:00:22.079Z,26.00
2023-04-24T14:02:50.413Z,25.50
2023-04-24T14:05:19.688Z,25.40
2023-04-24T14:07:47.592Z,25.40
2023-04-24T14:10:15.782Z,25.40
2023-04-24T14:12:43.746Z,25.10
2023-04-24T14:15:12.515Z,24.80
2023-04-24T14:17:41.379Z,24.40
2023-04-24T14:20:10.734Z,24.20
2023-04-24T14:22:38.627Z,24.10
2023-04-24T14:25:07.752Z,24.10
2023-04-24T14:27:36.050Z,24.00
2023-04-24T14:30:05.988Z,24.10
2023-04-24T14:32:34.015Z,24.20
2023-04-24T14:35:01.805Z,24.30
2023-04-24T14:37:29.914Z,24.20
2023-04-24T14:40:11.820Z,24.10
2023-04-24T14:42:45.836Z,24.00
2023-04-24T14:45:13.672Z,24.10
2023-04-24T14:47:41.734Z,24.20
2023-04-24T14:50:10.290Z,24.00
2023-04-24T14:52:39.198Z,23.80
2023-04-24T14:55:08.391Z,23.60
2023-04-24T14:57:37.594Z,23.50
2023-04-24T15:00:11.368Z,23.50
2023-04-24T15:02:43.560Z,23.40
2023-04-24T15:05:12.802Z,23.40
2023-04-24T15:07:42.856Z,23.30
2023-04-24T15:10:11.573Z,23.30
2023-04-24T15:12:39.675Z,23.30
2023-04-24T15:15:08.521Z,23.30
2023-04-24T15:17:36.921Z,23.30
2023-04-24T15:20:07.642Z,23.50
2023-04-24T15:22:35.889Z,23.60
2023-04-24T15:25:04.562Z,23.70
2023-04-24T15:27:43.579Z,23.60
2023-04-24T15:30:12.846Z,23.50
2023-04-24T15:32:41.137Z,23.50
2023-04-24T15:35:10.587Z,23.40
2023-04-24T15:37:40.150Z,23.50
2023-04-24T15:40:09.105Z,23.50
2023-04-24T15:42:37.250Z,23.50
2023-04-24T15:45:05.730Z,23.40
2023-04-24T15:47:34.402Z,23.40
2023-04-24T15:50:03.505Z,23.10
2023-04-24T15:52:31.542Z,23.10
2023-04-24T15:54:59.541Z,23.00
2023-04-24T15:57:27.463Z,23.00
2023-04-24T15:59:55.974Z,23.00
2023-04-24T16:02:24.096Z,23.30
2023-04-24T16:04:53.712Z,23.50
2023-04-24T16:07:21.784Z,23.50
2023-04-24T16:09:49.987Z,23.50
2023-04-24T16:12:18.024Z,23.30
2023-04-24T16:14:46.248Z,23.30
2023-04-24T16:17:14.816Z,23.40
2023-04-24T16:19:43.169Z,23.40
2023-04-24T16:22:11.182Z,23.40
2023-04-24T16:24:39.081Z,23.40
2023-04-24T16:27:07.395Z,23.20
2023-04-24T16:29:35.447Z,23.20
2023-04-24T16:32:03.580Z,23.00
2023-04-24T16:34:31.770Z,22.90
2023-04-24T16:37:00.284Z,22.70
2023-04-24T16:39:28.883Z,22.60
2023-04-24T16:41:58.994Z,22.50
2023-04-24T16:44:28.099Z,22.40
2023-04-24T16:46:56.150Z,22.30
2023-04-24T16:49:24.315Z,22.30
2023-04-24T16:51:52.142Z,22.20
2023-04-24T16:54:20.442Z,22.10
2023-04-24T16:56:48.466Z,22.10
2023-04-24T16:59:16.637Z,22.00
2023-04-24T17:01:44.506Z,22.00
2023-04-24T17:04:12.619Z,21.90
2023-04-24T17:06:40.790Z,21.80
2023-04-24T17:09:08.873Z,21.70
2023-04-24T17:11:36.790Z,21.50
2023-04-24T17:14:06.868Z,21.40
2023-04-24T17:16:35.238Z,21.40
2023-04-24T17:19:04.636Z,21.30
2023-04-24T17:21:33.536Z,21.20
2023-04-24T17:24:01.712Z,21.10
2023-04-24T17:26:32.695Z,20.90
2023-04-24T17:29:01.755Z,20.80
2023-04-24T17:31:29.817Z,20.60
2023-04-24T17:33:58.262Z,20.50
2023-04-24T17:36:26.313Z,20.40
2023-04-24T17:38:54.454Z,20.30
2023-04-24T17:41:22.588Z,20.20
2023-04-24T17:43:51.115Z,20.10
2023-04-24T17:46:19.092Z,20.10
2023-04-24T17:48:49.619Z,20.00
2023-04-24T17:51:18.148Z,19.90
2023-04-24T17:53:46.005Z,19.80
2023-04-24T17:56:14.073Z,19.60
2023-04-24T17:58:42.204Z,19.50
2023-04-24T18:01:10.595Z,19.40
2023-04-24T18:03:39.099Z,19.10
2023-04-24T18:06:07.699Z,19.10
2023-04-24T18:08:36.019Z,19.00
2023-04-24T18:11:04.847Z,18.90
2023-04-24T18:13:32.873Z,18.80
2023-04-24T18:16:01.042Z,18.70
2023-04-24T18:18:29.000Z,18.60
2023-04-24T18:20:57.222Z,18.50
2023-04-24T18:23:25.070Z,18.40
2023-04-24T18:25:53.145Z,18.40
2023-04-24T18:28:22.350Z,18.20
2023-04-24T18:30:50.916Z,18.10
2023-04-24T18:33:19.503Z,18.00
2023-04-24T18:35:47.816Z,18.10
2023-04-24T18:38:15.704Z,18.10
2023-04-24T18:40:43.921Z,18.20
2023-04-24T18:43:12.133Z,18.30
2023-04-24T18:45:40.264Z,18.30
2023-04-24T18:48:08.305Z,18.30
2023-04-24T18:50:36.874Z,18.30
2023-04-24T18:53:04.787Z,18.30
2023-04-24T18:55:34.159Z,18.20
2023-04-24T18:58:02.249Z,18.10
2023-04-24T19:00:31.181Z,17.90
2023-04-24T19:02:59.367Z,17.80
2023-04-24T19:05:27.828Z,17.70
2023-04-24T19:07:56.232Z,17.70
2023-04-24T19:10:24.669Z,17.60
2023-04-24T19:12:56.935Z,17.70
2023-04-24T19:15:25.927Z,17.80
2023-04-24T19:17:54.301Z,17.80
2023-04-24T19:20:23.037Z,17.80
2023-04-24T19:22:51.950Z,17.80
2023-04-24T19:25:20.543Z,17.80
2023-04-24T19:27:49.222Z,17.70
2023-04-24T19:30:17.605Z,17.70
2023-04-24T19:32:45.746Z,17.70
2023-04-24T19:35:14.001Z,17.70
2023-04-24T19:37:41.847Z,17.70
2023-04-24T19:40:10.267Z,17.70
2023-04-24T19:42:43.778Z,17.60
2023-04-24T19:45:14.007Z,17.60
2023-04-24T19:47:42.203Z,17.50
2023-04-24T19:50:10.614Z,17.50
2023-04-24T19:52:38.704Z,17.50
2023-04-24T19:55:07.275Z,17.50
2023-04-24T19:57:35.661Z,17.50
2023-04-24T20:00:05.110Z,17.50
2023-04-24T20:02:33.454Z,17.40
2023-04-24T20:05:02.453Z,17.40
2023-04-24T20:07:30.522Z,17.40
2023-04-24T20:09:58.696Z,17.40
2023-04-24T20:12:26.715Z,17.40
2023-04-24T20:14:54.902Z,17.40
2023-04-24T20:17:22.842Z,17.40
2023-04-24T20:19:51.190Z,17.30
2023-04-24T20:22:19.222Z,17.30
2023-04-24T20:24:47.782Z,17.20
2023-04-24T20:27:16.072Z,17.20
2023-04-24T20:29:44.745Z,17.30
2023-04-24T20:32:12.832Z,17.20
2023-04-24T20:34:41.104Z,17.30
2023-04-24T20:37:09.184Z,17.30
2023-04-24T20:39:39.351Z,17.20
2023-04-24T20:42:08.102Z,17.20
2023-04-24T20:44:36.413Z,17.20
2023-04-24T20:47:04.883Z,17.20
2023-04-24T20:49:32.872Z,17.10
2023-04-24T20:52:01.458Z,17.20
2023-04-24T20:54:29.776Z,17.20
2023-04-24T20:56:58.434Z,17.10
2023-04-24T20:59:26.772Z,17.20
2023-04-24T21:01:54.722Z,17.10
2023-04-24T21:04:22.801Z,17.10
2023-04-24T21:06:51.186Z,17.10
2023-04-24T21:09:19.159Z,17.10
2023-04-24T21:11:47.299Z,17.00
2023-04-24T21:14:15.420Z,17.00
2023-04-24T21:16:43.552Z,16.90
2023-04-24T21:19:11.494Z,16.90
2023-04-24T21:21:39.694Z,16.90
2023-04-24T21:24:07.686Z,16.80
2023-04-24T21:26:36.261Z,16.70
2023-04-24T21:29:04.205Z,16.70
2023-04-24T21:31:34.658Z,16.70
2023-04-24T21:34:02.696Z,16.60
2023-04-24T21:36:32.727Z,16.60
2023-04-24T21:39:00.942Z,16.60
2023-04-24T21:41:28.872Z,16.60
2023-04-24T21:43:57.067Z,16.50
2023-04-24T21:46:25.433Z,16.50
2023-04-24T21:48:53.567Z,16.50
2023-04-24T21:51:21.379Z,16.50
2023-04-24T21:53:49.615Z,16.40
2023-04-24T21:56:18.148Z,16.40
2023-04-24T21:58:47.373Z,16.40
2023-04-24T22:01:16.056Z,16.40
2023-04-24T22:03:44.098Z,16.40
2023-04-24T22:06:12.189Z,16.40
2023-04-24T22:08:40.125Z,16.30
2023-04-24T22:11:16.779Z,16.20
2023-04-24T22:13:57.265Z,16.20
2023-04-24T22:16:25.452Z,16.20
2023-04-24T22:18:56.283Z,16.20
2023-04-24T22:21:24.431Z,16.20
2023-04-24T22:23:52.557Z,16.10
2023-04-24T22:26:20.796Z,16.20
2023-04-24T22:28:48.613Z,16.20
2023-04-24T22:31:16.893Z,16.10
2023-04-24T22:33:47.277Z,16.10
2023-04-24T22:36:15.502Z,16.10
2023-04-24T22:38:43.217Z,16.10
2023-04-24T22:41:11.287Z,16.00
2023-04-24T22:43:39.245Z,16.00
2023-04-24T22:46:07.466Z,16.00
2023-04-24T22:48:35.210Z,16.00
2023-04-24T22:51:03.267Z,16.00
2023-04-24T22:53:31.190Z,16.00
2023-04-24T22:55:59.109Z,16.00
2023-04-24T22:58:27.597Z,16.00
2023-04-24T23:00:55.762Z,15.90
2023-04-24T23:03:24.459Z,15.90
2023-04-24T23:05:52.734Z,15.90
2023-04-24T23:08:20.472Z,15.80
2023-04-24T23:10:48.541Z,15.90
2023-04-24T23:13:16.540Z,15.90
2023-04-24T23:15:44.553Z,15.90
2023-04-24T23:18:12.758Z,15.80
2023-04-24T23:20:40.857Z,15.80
2023-04-24T23:23:08.650Z,15.80
2023-04-24T23:25:36.548Z,15.80
2023-04-24T23:28:04.513Z,15.80
2023-04-24T23:30:32.545Z,15.70
2023-04-24T23:33:00.634Z,15.70
2023-04-24T23:35:28.586Z,15.70
2023-04-24T23:37:57.102Z,15.70
2023-04-24T23:40:25.131Z,15.70
2023-04-24T23:43:05.716Z,15.70
2023-04-24T23:45:34.906Z,15.70
2023-04-24T23:48:03.661Z,15.70
2023-04-24T23:50:31.692Z,15.70
2023-04-24T23:52:59.507Z,15.60
2023-04-24T23:55:27.674Z,15.60
2023-04-24T23:57:55.480Z,15.60
